sensor_id;sensor_type;location;lat;lon;timestamp;pressure;altitude;pressure_sealevel;temperature;humidity
76594;BME280;65482;50.240;14.302;2023-05-03T00:01:10;100457.88;;;10.06;58.09
76594;BME280;65482;50.240;14.302;2023-05-03T00:03:37;100454.53;;;10.04;57.86
76594;BME280;65482;50.240;14.302;2023-05-03T00:06:14;100453.25;;;9.98;58.13
76594;BME280;65482;50.240;14.302;2023-05-03T00:08:41;100453.91;;;9.90;58.48
76594;BME280;65482;50.240;14.302;2023-05-03T00:11:07;100459.56;;;9.76;58.49
76594;BME280;65482;50.240;14.302;2023-05-03T00:13:33;100458.97;;;9.72;59.38
76594;BME280;65482;50.240;14.302;2023-05-03T00:15:59;100467.16;;;9.69;59.25
76594;BME280;65482;50.240;14.302;2023-05-03T00:18:25;100463.41;;;9.72;59.31
76594;BME280;65482;50.240;14.302;2023-05-03T00:20:51;100460.72;;;9.62;59.46
76594;BME280;65482;50.240;14.302;2023-05-03T00:23:18;100462.94;;;9.57;59.83
76594;BME280;65482;50.240;14.302;2023-05-03T00:25:44;100469.16;;;9.56;59.81
76594;BME280;65482;50.240;14.302;2023-05-03T00:28:10;100468.22;;;9.67;59.49
76594;BME280;65482;50.240;14.302;2023-05-03T00:30:36;100469.16;;;9.56;59.86
76594;BME280;65482;50.240;14.302;2023-05-03T00:33:01;100462.66;;;9.60;59.46
76594;BME280;65482;50.240;14.302;2023-05-03T00:35:28;100469.63;;;9.61;59.10
76594;BME280;65482;50.240;14.302;2023-05-03T00:37:53;100471.25;;;9.62;59.55
76594;BME280;65482;50.240;14.302;2023-05-03T00:40:19;100465.88;;;9.64;59.46
76594;BME280;65482;50.240;14.302;2023-05-03T00:42:46;100465.75;;;9.65;59.30
76594;BME280;65482;50.240;14.302;2023-05-03T00:45:12;100474.03;;;9.61;59.75
76594;BME280;65482;50.240;14.302;2023-05-03T00:47:38;100473.03;;;9.52;60.10
76594;BME280;65482;50.240;14.302;2023-05-03T00:50:05;100472.38;;;9.39;59.91
76594;BME280;65482;50.240;14.302;2023-05-03T00:52:33;100465.06;;;9.42;60.23
76594;BME280;65482;50.240;14.302;2023-05-03T00:54:59;100466.47;;;9.46;59.90
76594;BME280;65482;50.240;14.302;2023-05-03T00:57:27;100461.84;;;9.39;60.82
76594;BME280;65482;50.240;14.302;2023-05-03T00:59:55;100466.59;;;9.45;60.39
76594;BME280;65482;50.240;14.302;2023-05-03T01:02:23;100460.72;;;9.62;59.85
76594;BME280;65482;50.240;14.302;2023-05-03T01:04:51;100469.63;;;9.40;60.14
76594;BME280;65482;50.240;14.302;2023-05-03T01:15:50;100467.97;;;9.18;60.33
76594;BME280;65482;50.240;14.302;2023-05-03T01:18:22;100479.94;;;9.11;60.25
76594;BME280;65482;50.240;14.302;2023-05-03T01:20:52;100478.69;;;9.47;59.36
76594;BME280;65482;50.240;14.302;2023-05-03T01:25:51;100481.94;;;9.91;57.59
76594;BME280;65482;50.240;14.302;2023-05-03T01:28:18;100477.28;;;9.43;57.50
76594;BME280;65482;50.240;14.302;2023-05-03T01:30:45;100475.09;;;9.27;58.36
76594;BME280;65482;50.240;14.302;2023-05-03T01:33:23;100473.88;;;9.31;57.40
76594;BME280;65482;50.240;14.302;2023-05-03T01:36:01;100466.81;;;9.32;56.74
76594;BME280;65482;50.240;14.302;2023-05-03T01:38:32;100467.19;;;9.27;57.27
76594;BME280;65482;50.240;14.302;2023-05-03T01:41:01;100470.38;;;9.31;57.65
76594;BME280;65482;50.240;14.302;2023-05-03T01:43:30;100472.06;;;9.32;56.58
76594;BME280;65482;50.240;14.302;2023-05-03T01:45:57;100468.91;;;9.38;55.55
76594;BME280;65482;50.240;14.302;2023-05-03T01:48:23;100464.75;;;9.35;56.54
76594;BME280;65482;50.240;14.302;2023-05-03T01:50:49;100475.72;;;9.41;56.69
76594;BME280;65482;50.240;14.302;2023-05-03T01:53:14;100474.66;;;9.43;56.41
76594;BME280;65482;50.240;14.302;2023-05-03T01:55:40;100473.25;;;9.39;56.44
76594;BME280;65482;50.240;14.302;2023-05-03T01:58:05;100471.31;;;9.41;56.39
76594;BME280;65482;50.240;14.302;2023-05-03T02:00:31;100470.03;;;9.35;56.97
76594;BME280;65482;50.240;14.302;2023-05-03T02:02:57;100476.13;;;9.36;56.75
76594;BME280;65482;50.240;14.302;2023-05-03T02:05:23;100469.16;;;9.35;57.54
76594;BME280;65482;50.240;14.302;2023-05-03T02:07:50;100473.88;;;9.31;58.02
76594;BME280;65482;50.240;14.302;2023-05-03T02:10:18;100475.09;;;9.27;57.06
76594;BME280;65482;50.240;14.302;2023-05-03T02:12:43;100475.72;;;9.20;56.57
76594;BME280;65482;50.240;14.302;2023-05-03T02:15:11;100477.66;;;9.18;56.65
76594;BME280;65482;50.240;14.302;2023-05-03T02:17:37;100482.16;;;9.06;56.43
76594;BME280;65482;50.240;14.302;2023-05-03T02:20:04;100477.19;;;8.91;57.20
76594;BME280;65482;50.240;14.302;2023-05-03T02:22:31;100479.47;;;8.85;57.63
76594;BME280;65482;50.240;14.302;2023-05-03T02:24:57;100489.66;;;8.78;58.38
76594;BME280;65482;50.240;14.302;2023-05-03T02:27:24;100486.84;;;8.70;57.96
76594;BME280;65482;50.240;14.302;2023-05-03T02:29:50;100478.72;;;8.62;58.20
76594;BME280;65482;50.240;14.302;2023-05-03T02:32:15;100481.75;;;8.46;58.76
76594;BME280;65482;50.240;14.302;2023-05-03T02:34:43;100476.72;;;8.43;58.61
76594;BME280;65482;50.240;14.302;2023-05-03T02:37:09;100473.63;;;8.38;58.66
76594;BME280;65482;50.240;14.302;2023-05-03T02:39:35;100474.22;;;8.30;59.18
76594;BME280;65482;50.240;14.302;2023-05-03T02:42:00;100478.41;;;8.21;58.95
76594;BME280;65482;50.240;14.302;2023-05-03T02:44:27;100482.22;;;8.17;59.65
76594;BME280;65482;50.240;14.302;2023-05-03T02:46:53;100483.91;;;8.07;59.99
76594;BME280;65482;50.240;14.302;2023-05-03T02:49:19;100482.38;;;8.04;60.11
76594;BME280;65482;50.240;14.302;2023-05-03T02:51:45;100485.34;;;8.00;60.40
76594;BME280;65482;50.240;14.302;2023-05-03T02:54:10;100488.84;;;8.00;61.03
76594;BME280;65482;50.240;14.302;2023-05-03T02:56:37;100483.56;;;8.00;60.71
76594;BME280;65482;50.240;14.302;2023-05-03T02:59:03;100483.81;;;7.97;60.50
76594;BME280;65482;50.240;14.302;2023-05-03T03:01:28;100487.28;;;7.86;60.87
76594;BME280;65482;50.240;14.302;2023-05-03T03:03:55;100489.78;;;7.88;61.25
76594;BME280;65482;50.240;14.302;2023-05-03T03:06:21;100491.81;;;7.84;61.15
76594;BME280;65482;50.240;14.302;2023-05-03T03:08:46;100491.31;;;7.79;60.94
76594;BME280;65482;50.240;14.302;2023-05-03T03:11:12;100499.19;;;7.79;59.92
76594;BME280;65482;50.240;14.302;2023-05-03T03:13:38;100496.47;;;7.81;61.29
76594;BME280;65482;50.240;14.302;2023-05-03T03:16:06;100499.91;;;7.70;61.44
76594;BME280;65482;50.240;14.302;2023-05-03T03:18:32;100496.31;;;7.60;61.01
76594;BME280;65482;50.240;14.302;2023-05-03T03:21:00;100495.94;;;7.53;61.41
76594;BME280;65482;50.240;14.302;2023-05-03T03:23:26;100499.97;;;7.46;61.94
76594;BME280;65482;50.240;14.302;2023-05-03T03:25:52;100504.97;;;7.37;62.22
76594;BME280;65482;50.240;14.302;2023-05-03T03:28:17;100502.59;;;7.34;61.92
76594;BME280;65482;50.240;14.302;2023-05-03T03:30:43;100500.75;;;7.24;62.28
76594;BME280;65482;50.240;14.302;2023-05-03T03:33:09;100513.88;;;7.24;62.24
76594;BME280;65482;50.240;14.302;2023-05-03T03:35:37;100513.28;;;7.20;62.54
76594;BME280;65482;50.240;14.302;2023-05-03T03:38:03;100518.03;;;7.15;62.95
76594;BME280;65482;50.240;14.302;2023-05-03T03:40:29;100512.53;;;7.07;63.15
76594;BME280;65482;50.240;14.302;2023-05-03T03:42:54;100512.91;;;7.13;63.26
76594;BME280;65482;50.240;14.302;2023-05-03T03:45:20;100514.69;;;7.13;63.72
76594;BME280;65482;50.240;14.302;2023-05-03T03:47:46;100513.34;;;7.07;63.95
76594;BME280;65482;50.240;14.302;2023-05-03T03:50:14;100514.06;;;7.09;63.55
76594;BME280;65482;50.240;14.302;2023-05-03T03:52:41;100517.06;;;7.05;63.53
76594;BME280;65482;50.240;14.302;2023-05-03T03:55:07;100516.31;;;7.03;63.85
76594;BME280;65482;50.240;14.302;2023-05-03T03:57:32;100521.78;;;7.00;63.61
76594;BME280;65482;50.240;14.302;2023-05-03T03:59:58;100518.53;;;6.96;63.86
76594;BME280;65482;50.240;14.302;2023-05-03T04:02:26;100528.09;;;6.97;63.44
76594;BME280;65482;50.240;14.302;2023-05-03T04:04:52;100525.28;;;7.11;62.70
76594;BME280;65482;50.240;14.302;2023-05-03T04:07:17;100530.25;;;7.27;62.58
76594;BME280;65482;50.240;14.302;2023-05-03T04:09:43;100528.59;;;7.37;61.97
76594;BME280;65482;50.240;14.302;2023-05-03T04:12:09;100528.72;;;7.36;61.94
76594;BME280;65482;50.240;14.302;2023-05-03T04:14:36;100536.63;;;7.47;61.57
76594;BME280;65482;50.240;14.302;2023-05-03T04:17:01;100534.81;;;7.48;62.10
76594;BME280;65482;50.240;14.302;2023-05-03T04:19:30;100541.72;;;7.37;62.87
76594;BME280;65482;50.240;14.302;2023-05-03T04:21:56;100545.56;;;7.45;63.15
76594;BME280;65482;50.240;14.302;2023-05-03T04:24:23;100543.09;;;7.54;62.43
76594;BME280;65482;50.240;14.302;2023-05-03T04:26:48;100548.81;;;7.48;62.77
76594;BME280;65482;50.240;14.302;2023-05-03T04:29:16;100556.56;;;7.50;63.17
76594;BME280;65482;50.240;14.302;2023-05-03T04:31:44;100550.78;;;7.80;62.06
76594;BME280;65482;50.240;14.302;2023-05-03T04:34:10;100553.88;;;7.85;61.98
76594;BME280;65482;50.240;14.302;2023-05-03T04:36:39;100561.56;;;7.88;61.03
76594;BME280;65482;50.240;14.302;2023-05-03T04:39:06;100569.81;;;8.06;61.27
76594;BME280;65482;50.240;14.302;2023-05-03T04:41:32;100566.47;;;8.27;60.82
76594;BME280;65482;50.240;14.302;2023-05-03T04:43:58;100573.06;;;8.44;60.12
76594;BME280;65482;50.240;14.302;2023-05-03T04:46:24;100575.78;;;8.76;58.35
76594;BME280;65482;50.240;14.302;2023-05-03T04:48:50;100576.31;;;8.91;57.32
76594;BME280;65482;50.240;14.302;2023-05-03T04:51:16;100580.53;;;8.93;57.43
76594;BME280;65482;50.240;14.302;2023-05-03T04:53:41;100579.13;;;9.10;56.90
76594;BME280;65482;50.240;14.302;2023-05-03T04:56:07;100577.56;;;9.19;57.65
76594;BME280;65482;50.240;14.302;2023-05-03T04:58:36;100574.63;;;9.33;56.45
76594;BME280;65482;50.240;14.302;2023-05-03T05:01:02;100582.22;;;9.48;56.13
76594;BME280;65482;50.240;14.302;2023-05-03T05:03:28;100576.84;;;9.49;54.64
76594;BME280;65482;50.240;14.302;2023-05-03T05:05:55;100583.41;;;9.55;54.17
76594;BME280;65482;50.240;14.302;2023-05-03T05:08:22;100579.41;;;9.61;53.26
76594;BME280;65482;50.240;14.302;2023-05-03T05:10:48;100584.34;;;9.54;52.56
76594;BME280;65482;50.240;14.302;2023-05-03T05:13:14;100590.41;;;9.66;51.75
76594;BME280;65482;50.240;14.302;2023-05-03T05:16:15;100596.00;;;10.45;50.86
76594;BME280;65482;50.240;14.302;2023-05-03T05:18:46;100597.28;;;11.50;47.58
76594;BME280;65482;50.240;14.302;2023-05-03T05:21:12;100602.00;;;11.56;46.84
76594;BME280;65482;50.240;14.302;2023-05-03T05:23:39;100598.25;;;11.39;47.30
76594;BME280;65482;50.240;14.302;2023-05-03T05:26:07;100607.00;;;11.49;46.45
76594;BME280;65482;50.240;14.302;2023-05-03T05:28:34;100610.06;;;11.74;46.98
76594;BME280;65482;50.240;14.302;2023-05-03T05:31:33;100610.19;;;11.82;45.84
76594;BME280;65482;50.240;14.302;2023-05-03T05:34:50;100603.09;;;11.53;46.48
76594;BME280;65482;50.240;14.302;2023-05-03T05:51:06;100625.25;;;12.94;44.07
76594;BME280;65482;50.240;14.302;2023-05-03T05:58:10;100633.06;;;13.85;42.00
76594;BME280;65482;50.240;14.302;2023-05-03T06:01:19;100634.81;;;14.21;40.41
76594;BME280;65482;50.240;14.302;2023-05-03T06:04:45;100638.41;;;15.39;38.39
76594;BME280;65482;50.240;14.302;2023-05-03T06:07:15;100639.59;;;15.53;37.76
76594;BME280;65482;50.240;14.302;2023-05-03T06:10:14;100640.22;;;16.29;36.61
76594;BME280;65482;50.240;14.302;2023-05-03T06:12:41;100643.81;;;16.53;36.19
76594;BME280;65482;50.240;14.302;2023-05-03T06:15:12;100639.28;;;16.14;36.70
76594;BME280;65482;50.240;14.302;2023-05-03T06:17:41;100635.28;;;15.93;37.10
76594;BME280;65482;50.240;14.302;2023-05-03T06:20:07;100642.75;;;15.57;38.10
76594;BME280;65482;50.240;14.302;2023-05-03T06:22:37;100644.75;;;15.63;37.84
76594;BME280;65482;50.240;14.302;2023-05-03T06:25:04;100643.41;;;15.50;38.62
76594;BME280;65482;50.240;14.302;2023-05-03T06:27:36;100647.84;;;15.17;38.62
76594;BME280;65482;50.240;14.302;2023-05-03T06:30:02;100654.47;;;15.05;38.92
76594;BME280;65482;50.240;14.302;2023-05-03T06:32:28;100660.38;;;14.82;39.38
76594;BME280;65482;50.240;14.302;2023-05-03T06:34:55;100655.25;;;14.55;39.86
76594;BME280;65482;50.240;14.302;2023-05-03T06:37:25;100660.19;;;14.84;39.91
76594;BME280;65482;50.240;14.302;2023-05-03T06:39:51;100649.56;;;15.51;38.76
76594;BME280;65482;50.240;14.302;2023-05-03T06:42:53;100651.59;;;15.74;38.31
76594;BME280;65482;50.240;14.302;2023-05-03T06:45:33;100661.94;;;17.36;35.87
76594;BME280;65482;50.240;14.302;2023-05-03T06:48:19;100661.16;;;19.74;31.83
76594;BME280;65482;50.240;14.302;2023-05-03T06:50:49;100665.34;;;21.36;29.05
76594;BME280;65482;50.240;14.302;2023-05-03T06:53:16;100668.28;;;22.48;27.32
76594;BME280;65482;50.240;14.302;2023-05-03T06:55:45;100671.34;;;23.87;25.49
76594;BME280;65482;50.240;14.302;2023-05-03T06:58:11;100662.47;;;24.67;25.10
76594;BME280;65482;50.240;14.302;2023-05-03T07:00:38;100664.00;;;26.43;23.01
76594;BME280;65482;50.240;14.302;2023-05-03T07:03:04;100663.66;;;26.91;22.15
76594;BME280;65482;50.240;14.302;2023-05-03T07:05:30;100662.09;;;25.30;24.19
76594;BME280;65482;50.240;14.302;2023-05-03T07:07:55;100667.09;;;24.41;25.01
76594;BME280;65482;50.240;14.302;2023-05-03T07:10:21;100653.53;;;23.86;24.82
76594;BME280;65482;50.240;14.302;2023-05-03T07:12:46;100659.84;;;23.41;25.88
76594;BME280;65482;50.240;14.302;2023-05-03T07:15:12;100654.22;;;22.46;25.91
76594;BME280;65482;50.240;14.302;2023-05-03T07:17:38;100659.66;;;21.65;27.34
76594;BME280;65482;50.240;14.302;2023-05-03T07:20:06;100665.56;;;21.28;27.91
76594;BME280;65482;50.240;14.302;2023-05-03T07:22:31;100650.22;;;21.01;28.49
76594;BME280;65482;50.240;14.302;2023-05-03T07:24:57;100651.69;;;20.62;29.88
76594;BME280;65482;50.240;14.302;2023-05-03T07:27:24;100650.91;;;20.05;31.03
76594;BME280;65482;50.240;14.302;2023-05-03T07:29:50;100649.34;;;19.46;31.89
76594;BME280;65482;50.240;14.302;2023-05-03T07:32:16;100653.41;;;19.21;32.24
76594;BME280;65482;50.240;14.302;2023-05-03T07:34:42;100651.97;;;19.03;32.31
76594;BME280;65482;50.240;14.302;2023-05-03T07:37:08;100653.75;;;18.81;32.79
76594;BME280;65482;50.240;14.302;2023-05-03T07:39:33;100649.59;;;18.79;32.23
76594;BME280;65482;50.240;14.302;2023-05-03T07:41:59;100650.44;;;19.52;30.91
76594;BME280;65482;50.240;14.302;2023-05-03T07:44:25;100644.22;;;19.95;30.63
76594;BME280;65482;50.240;14.302;2023-05-03T07:46:50;100651.38;;;20.44;29.62
76594;BME280;65482;50.240;14.302;2023-05-03T07:49:16;100650.28;;;20.38;29.92
76594;BME280;65482;50.240;14.302;2023-05-03T07:51:42;100649.66;;;21.33;29.22
76594;BME280;65482;50.240;14.302;2023-05-03T07:54:07;100642.69;;;22.12;28.23
76594;BME280;65482;50.240;14.302;2023-05-03T07:56:33;100635.69;;;21.97;28.28
76594;BME280;65482;50.240;14.302;2023-05-03T07:58:59;100636.72;;;21.76;28.23
76594;BME280;65482;50.240;14.302;2023-05-03T08:01:30;100638.19;;;21.65;28.32
76594;BME280;65482;50.240;14.302;2023-05-03T08:04:16;100635.38;;;22.59;27.53
76594;BME280;65482;50.240;14.302;2023-05-03T08:41:35;100623.44;;;23.63;25.56
76594;BME280;65482;50.240;14.302;2023-05-03T08:44:48;100611.84;;;22.48;27.42
76594;BME280;65482;50.240;14.302;2023-05-03T08:47:22;100624.31;;;22.15;28.18
76594;BME280;65482;50.240;14.302;2023-05-03T08:50:08;100621.28;;;22.63;27.22
76594;BME280;65482;50.240;14.302;2023-05-03T08:52:52;100610.28;;;22.07;28.06
76594;BME280;65482;50.240;14.302;2023-05-03T08:55:20;100619.47;;;21.11;28.34
76594;BME280;65482;50.240;14.302;2023-05-03T08:57:52;100616.50;;;20.37;29.47
76594;BME280;65482;50.240;14.302;2023-05-03T09:00:18;100613.22;;;20.07;30.06
76594;BME280;65482;50.240;14.302;2023-05-03T09:02:44;100614.59;;;19.96;29.86
76594;BME280;65482;50.240;14.302;2023-05-03T09:05:44;100602.16;;;19.89;28.88
76594;BME280;65482;50.240;14.302;2023-05-03T09:24:20;100605.31;;;18.40;29.65
76594;BME280;65482;50.240;14.302;2023-05-03T09:41:55;100611.16;;;19.81;28.14
76594;BME280;65482;50.240;14.302;2023-05-03T09:44:39;100593.03;;;19.76;29.50
76594;BME280;65482;50.240;14.302;2023-05-03T09:47:06;100596.81;;;19.89;28.03
76594;BME280;65482;50.240;14.302;2023-05-03T09:49:32;100600.31;;;19.89;27.95
76594;BME280;65482;50.240;14.302;2023-05-03T09:51:59;100592.25;;;19.82;27.83
76594;BME280;65482;50.240;14.302;2023-05-03T09:54:25;100592.72;;;19.43;28.28
76594;BME280;65482;50.240;14.302;2023-05-03T09:56:54;100589.34;;;19.56;28.23
76594;BME280;65482;50.240;14.302;2023-05-03T09:59:20;100574.72;;;19.80;27.32
76594;BME280;65482;50.240;14.302;2023-05-03T10:01:58;100581.91;;;19.79;28.25
76594;BME280;65482;50.240;14.302;2023-05-03T10:04:26;100584.53;;;19.51;27.24
76594;BME280;65482;50.240;14.302;2023-05-03T10:06:57;100579.00;;;19.10;28.73
76594;BME280;65482;50.240;14.302;2023-05-03T10:09:42;100572.16;;;19.22;28.74
76594;BME280;65482;50.240;14.302;2023-05-03T10:12:08;100574.16;;;19.20;28.35
76594;BME280;65482;50.240;14.302;2023-05-03T10:14:40;100579.34;;;19.21;29.83
76594;BME280;65482;50.240;14.302;2023-05-03T10:17:13;100585.41;;;19.30;28.64
76594;BME280;65482;50.240;14.302;2023-05-03T10:19:47;100581.50;;;19.33;28.62
76594;BME280;65482;50.240;14.302;2023-05-03T10:22:16;100557.16;;;19.27;28.26
76594;BME280;65482;50.240;14.302;2023-05-03T10:32:50;100562.94;;;18.37;29.85
76594;BME280;65482;50.240;14.302;2023-05-03T10:35:19;100560.63;;;18.48;30.47
76594;BME280;65482;50.240;14.302;2023-05-03T10:37:47;100559.44;;;18.51;30.84
76594;BME280;65482;50.240;14.302;2023-05-03T10:40:16;100553.16;;;18.59;29.74
76594;BME280;65482;50.240;14.302;2023-05-03T10:42:45;100554.53;;;18.40;29.74
76594;BME280;65482;50.240;14.302;2023-05-03T10:45:40;100561.75;;;17.95;30.53
76594;BME280;65482;50.240;14.302;2023-05-03T10:50:37;100562.59;;;17.72;31.08
76594;BME280;65482;50.240;14.302;2023-05-03T10:53:03;100558.69;;;16.99;30.16
76594;BME280;65482;50.240;14.302;2023-05-03T10:55:29;100558.50;;;16.69;30.70
76594;BME280;65482;50.240;14.302;2023-05-03T10:57:57;100559.13;;;16.48;32.59
76594;BME280;65482;50.240;14.302;2023-05-03T11:00:37;100558.59;;;16.53;32.47
76594;BME280;65482;50.240;14.302;2023-05-03T11:05:50;100551.81;;;16.73;33.50
76594;BME280;65482;50.240;14.302;2023-05-03T11:08:21;100553.47;;;16.82;32.67
76594;BME280;65482;50.240;14.302;2023-05-03T11:10:48;100551.03;;;16.64;31.95
76594;BME280;65482;50.240;14.302;2023-05-03T11:13:15;100548.09;;;16.59;32.51
76594;BME280;65482;50.240;14.302;2023-05-03T11:15:41;100546.41;;;16.58;32.59
76594;BME280;65482;50.240;14.302;2023-05-03T11:18:08;100538.56;;;16.65;32.35
76594;BME280;65482;50.240;14.302;2023-05-03T11:20:34;100538.56;;;16.65;32.57
76594;BME280;65482;50.240;14.302;2023-05-03T11:23:03;100533.88;;;16.67;32.96
76594;BME280;65482;50.240;14.302;2023-05-03T11:25:29;100534.09;;;16.57;32.08
76594;BME280;65482;50.240;14.302;2023-05-03T11:27:55;100531.13;;;16.52;32.01
76594;BME280;65482;50.240;14.302;2023-05-03T11:30:21;100532.28;;;16.18;31.24
76594;BME280;65482;50.240;14.302;2023-05-03T11:32:53;100531.91;;;15.32;32.28
76594;BME280;65482;50.240;14.302;2023-05-03T11:35:19;100526.56;;;14.91;33.50
76594;BME280;65482;50.240;14.302;2023-05-03T11:37:52;100523.75;;;14.93;33.99
76594;BME280;65482;50.240;14.302;2023-05-03T11:40:18;100524.59;;;15.02;33.95
76594;BME280;65482;50.240;14.302;2023-05-03T11:42:54;100515.78;;;15.26;33.05
76594;BME280;65482;50.240;14.302;2023-05-03T11:45:25;100521.44;;;15.39;33.56
76594;BME280;65482;50.240;14.302;2023-05-03T11:47:52;100521.09;;;15.26;32.19
76594;BME280;65482;50.240;14.302;2023-05-03T11:50:22;100523.44;;;15.13;31.45
76594;BME280;65482;50.240;14.302;2023-05-03T11:52:51;100514.63;;;15.04;32.18
76594;BME280;65482;50.240;14.302;2023-05-03T11:55:17;100510.97;;;15.05;32.17
76594;BME280;65482;50.240;14.302;2023-05-03T11:57:45;100518.28;;;15.19;32.38
76594;BME280;65482;50.240;14.302;2023-05-03T12:00:14;100520.63;;;15.30;33.05
76594;BME280;65482;50.240;14.302;2023-05-03T12:02:46;100520.13;;;15.02;32.52
76594;BME280;65482;50.240;14.302;2023-05-03T12:05:14;100521.59;;;14.97;32.72
76594;BME280;65482;50.240;14.302;2023-05-03T12:07:40;100518.41;;;14.68;32.70
76594;BME280;65482;50.240;14.302;2023-05-03T12:10:16;100509.72;;;14.58;33.57
76594;BME280;65482;50.240;14.302;2023-05-03T12:12:53;100503.13;;;14.62;34.28
76594;BME280;65482;50.240;14.302;2023-05-03T12:17:55;100502.81;;;14.82;34.21
76594;BME280;65482;50.240;14.302;2023-05-03T12:20:22;100500.16;;;14.90;32.95
76594;BME280;65482;50.240;14.302;2023-05-03T12:22:53;100508.00;;;15.16;34.34
76594;BME280;65482;50.240;14.302;2023-05-03T12:25:19;100502.31;;;15.36;33.56
76594;BME280;65482;50.240;14.302;2023-05-03T12:27:45;100503.63;;;15.64;33.21
76594;BME280;65482;50.240;14.302;2023-05-03T12:30:11;100499.97;;;15.82;32.58
76594;BME280;65482;50.240;14.302;2023-05-03T12:32:37;100500.13;;;15.88;32.96
76594;BME280;65482;50.240;14.302;2023-05-03T12:35:06;100498.44;;;15.87;32.84
76594;BME280;65482;50.240;14.302;2023-05-03T12:37:35;100497.56;;;16.03;32.61
76594;BME280;65482;50.240;14.302;2023-05-03T12:40:05;100498.41;;;16.04;32.46
76594;BME280;65482;50.240;14.302;2023-05-03T12:42:31;100493.63;;;15.91;31.89
76594;BME280;65482;50.240;14.302;2023-05-03T12:45:00;100495.69;;;15.56;31.97
76594;BME280;65482;50.240;14.302;2023-05-03T12:47:26;100485.53;;;15.51;32.14
76594;BME280;65482;50.240;14.302;2023-05-03T12:49:52;100490.50;;;15.63;32.19
76594;BME280;65482;50.240;14.302;2023-05-03T12:52:19;100489.03;;;15.52;32.60
76594;BME280;65482;50.240;14.302;2023-05-03T12:54:46;100489.50;;;15.56;32.42
76594;BME280;65482;50.240;14.302;2023-05-03T12:57:12;100486.19;;;15.62;31.52
76594;BME280;65482;50.240;14.302;2023-05-03T12:59:39;100478.38;;;15.60;32.78
76594;BME280;65482;50.240;14.302;2023-05-03T13:02:06;100468.91;;;15.58;32.85
76594;BME280;65482;50.240;14.302;2023-05-03T13:04:33;100471.03;;;15.79;33.50
76594;BME280;65482;50.240;14.302;2023-05-03T13:06:58;100466.03;;;15.92;32.15
76594;BME280;65482;50.240;14.302;2023-05-03T13:09:25;100468.31;;;15.95;32.09
76594;BME280;65482;50.240;14.302;2023-05-03T13:11:51;100453.34;;;16.02;32.83
76594;BME280;65482;50.240;14.302;2023-05-03T13:14:17;100469.25;;;16.10;32.81
76594;BME280;65482;50.240;14.302;2023-05-03T13:16:43;100462.22;;;15.86;33.05
76594;BME280;65482;50.240;14.302;2023-05-03T13:19:12;100466.06;;;15.67;32.62
76594;BME280;65482;50.240;14.302;2023-05-03T13:21:38;100460.75;;;15.59;33.64
76594;BME280;65482;50.240;14.302;2023-05-03T13:24:04;100450.28;;;15.66;33.56
76594;BME280;65482;50.240;14.302;2023-05-03T13:26:30;100452.25;;;15.72;32.27
76594;BME280;65482;50.240;14.302;2023-05-03T13:28:57;100441.47;;;15.74;32.68
76594;BME280;65482;50.240;14.302;2023-05-03T13:31:23;100435.94;;;15.83;33.49
76594;BME280;65482;50.240;14.302;2023-05-03T13:33:50;100439.06;;;15.95;33.07
76594;BME280;65482;50.240;14.302;2023-05-03T13:36:25;100435.81;;;16.16;32.13
76594;BME280;65482;50.240;14.302;2023-05-03T13:38:52;100438.47;;;16.16;31.58
76594;BME280;65482;50.240;14.302;2023-05-03T13:41:21;100441.09;;;16.24;31.62
76594;BME280;65482;50.240;14.302;2023-05-03T13:43:46;100438.59;;;16.23;31.46
76594;BME280;65482;50.240;14.302;2023-05-03T13:46:12;100425.34;;;16.15;31.14
76594;BME280;65482;50.240;14.302;2023-05-03T13:48:38;100427.81;;;16.16;31.29
76594;BME280;65482;50.240;14.302;2023-05-03T13:51:09;100419.56;;;16.03;31.61
76594;BME280;65482;50.240;14.302;2023-05-03T13:53:35;100421.47;;;16.17;32.08
76594;BME280;65482;50.240;14.302;2023-05-03T13:56:01;100418.25;;;16.30;33.19
76594;BME280;65482;50.240;14.302;2023-05-03T13:58:26;100425.31;;;16.46;32.46
76594;BME280;65482;50.240;14.302;2023-05-03T14:00:52;100415.97;;;16.50;31.76
76594;BME280;65482;50.240;14.302;2023-05-03T14:03:17;100410.81;;;16.48;31.79
76594;BME280;65482;50.240;14.302;2023-05-03T14:05:43;100412.78;;;16.55;31.36
76594;BME280;65482;50.240;14.302;2023-05-03T14:08:09;100411.41;;;16.59;31.66
76594;BME280;65482;50.240;14.302;2023-05-03T14:10:34;100414.25;;;16.57;31.57
76594;BME280;65482;50.240;14.302;2023-05-03T14:13:00;100404.25;;;16.59;31.04
76594;BME280;65482;50.240;14.302;2023-05-03T14:15:26;100415.31;;;16.48;31.06
76594;BME280;65482;50.240;14.302;2023-05-03T14:17:51;100407.44;;;16.32;30.66
76594;BME280;65482;50.240;14.302;2023-05-03T14:20:17;100414.16;;;16.19;31.41
76594;BME280;65482;50.240;14.302;2023-05-03T14:22:43;100419.72;;;16.01;31.89
76594;BME280;65482;50.240;14.302;2023-05-03T14:25:09;100413.38;;;16.10;32.09
76594;BME280;65482;50.240;14.302;2023-05-03T14:27:35;100414.41;;;16.09;31.52
76594;BME280;65482;50.240;14.302;2023-05-03T14:30:01;100417.34;;;16.15;31.37
76594;BME280;65482;50.240;14.302;2023-05-03T14:32:27;100406.81;;;16.21;32.03
76594;BME280;65482;50.240;14.302;2023-05-03T14:34:52;100403.66;;;16.26;31.40
76594;BME280;65482;50.240;14.302;2023-05-03T14:37:18;100406.16;;;16.27;31.41
76594;BME280;65482;50.240;14.302;2023-05-03T14:39:43;100404.13;;;16.29;32.01
76594;BME280;65482;50.240;14.302;2023-05-03T14:42:09;100411.75;;;16.33;32.56